Time;durP1;ratioP1;P1;durP2;ratioP2;P2;SDS_P1;SDS_P2;PMS_P1;PMS_P2;Temp;Humidity;BMP_temperature;BMP_pressure;BME280_temperature;BME280_humidity;BME280_pressure;Samples;Min_cycle;Max_cycle;Signal;HPM_P1;HPM_P2
2021/07/11 00:02:04;;;;;;;9.83;5.40;;;15.00;99.90;;;;;;5011752;28;20645;-84
2021/07/11 00:04:30;;;;;;;9.70;6.20;;;15.00;99.90;;;;;;5011878;28;20182;-85
2021/07/11 00:06:56;;;;;;;8.97;6.70;;;15.00;99.90;;;;;;5006645;28;20583;-85
2021/07/11 00:09:22;;;;;;;9.20;6.40;;;15.00;99.90;;;;;;5011318;28;20264;-84
2021/07/11 00:11:48;;;;;;;11.43;6.10;;;15.00;99.90;;;;;;5012733;28;20252;-86
2021/07/11 00:14:14;;;;;;;8.90;5.80;;;15.10;99.90;;;;;;5012142;28;20693;-84
2021/07/11 00:16:39;;;;;;;7.83;4.87;;;15.10;99.90;;;;;;4995455;28;20186;-84
2021/07/11 00:19:05;;;;;;;9.90;5.27;;;14.60;99.90;;;;;;5012583;28;20235;-86
2021/07/11 00:21:31;;;;;;;6.53;5.17;;;14.40;99.90;;;;;;4995343;28;20575;-86
2021/07/11 00:23:57;;;;;;;12.57;6.37;;;14.40;99.90;;;;;;5011100;28;20210;-85
2021/07/11 00:26:22;;;;;;;8.77;5.23;;;14.60;99.90;;;;;;4995218;28;20214;-87
2021/07/11 00:28:48;;;;;;;8.50;5.73;;;14.60;99.90;;;;;;5011670;28;20588;-85
2021/07/11 00:31:14;;;;;;;10.83;5.73;;;14.60;99.90;;;;;;5012348;28;20190;-84
2021/07/11 00:33:40;;;;;;;10.30;5.73;;;14.70;99.90;;;;;;5011003;28;20870;-84
2021/07/11 00:36:06;;;;;;;9.73;5.47;;;14.60;99.90;;;;;;5022008;28;20206;-86
2021/07/11 00:38:32;;;;;;;7.80;4.50;;;14.60;99.90;;;;;;5010901;28;20280;-84
2021/07/11 00:40:59;;;;;;;12.87;6.20;;;14.60;99.90;;;;;;5020736;28;20357;-85
2021/07/11 00:43:24;;;;;;;10.17;6.40;;;14.60;99.90;;;;;;5019331;28;20677;-84
2021/07/11 00:45:50;;;;;;;10.43;6.63;;;14.70;99.90;;;;;;4989236;28;20186;-84
2021/07/11 00:48:20;;;;;;;9.57;5.93;;;14.70;99.90;;;;;;4995140;28;20233;-87
2021/07/11 00:50:47;;;;;;;10.57;4.90;;;14.70;99.90;;;;;;5019250;28;20388;-88
2021/07/11 00:53:14;;;;;;;11.47;5.83;;;14.50;99.90;;;;;;5003533;28;20218;-85
2021/07/11 00:55:40;;;;;;;10.00;5.60;;;14.40;99.90;;;;;;5018596;28;20392;-84
2021/07/11 00:58:05;;;;;;;9.97;6.67;;;14.30;99.90;;;;;;5011245;28;20769;-85
2021/07/11 01:00:32;;;;;;;10.83;6.83;;;14.30;99.90;;;;;;5022138;28;20271;-85
2021/07/11 01:03:10;;;;;;;10.23;6.23;;;14.30;99.90;;;;;;5012234;28;20708;-85
2021/07/11 01:05:36;;;;;;;9.10;5.90;;;14.30;99.90;;;;;;5019233;28;20589;-84
2021/07/11 01:08:14;;;;;;;11.47;6.73;;;14.20;99.90;;;;;;4995231;28;20221;-86
2021/07/11 01:10:46;;;;;;;9.37;6.13;;;14.00;99.90;;;;;;5020803;28;20282;-87
2021/07/11 01:13:19;;;;;;;11.63;6.50;;;13.90;99.90;;;;;;5038446;28;20752;-89
2021/07/11 01:15:47;;;;;;;11.63;6.23;;;14.00;99.90;;;;;;5038560;28;20205;-86
2021/07/11 01:18:13;;;;;;;9.50;5.97;;;14.10;99.90;;;;;;5011346;28;20225;-84
2021/07/11 01:20:55;;;;;;;8.80;6.20;;;14.10;99.90;;;;;;5010581;28;20763;-85
2021/07/11 01:23:41;;;;;;;10.40;6.73;;;14.10;99.90;;;;;;5018355;28;20254;-85
2021/07/11 01:26:09;;;;;;;15.93;6.27;;;14.10;99.90;;;;;;5020722;28;20218;-85
2021/07/11 01:28:37;;;;;;;10.47;5.10;;;14.20;99.90;;;;;;5019324;28;20240;-84
2021/07/11 01:31:03;;;;;;;12.63;7.23;;;14.20;99.90;;;;;;5002557;28;20180;-85
2021/07/11 01:33:31;;;;;;;10.17;6.17;;;14.40;99.90;;;;;;5005600;28;20215;-85
2021/07/11 01:35:59;;;;;;;11.67;6.80;;;14.40;99.90;;;;;;5017290;28;20266;-85
2021/07/11 01:38:25;;;;;;;10.87;6.57;;;14.50;99.90;;;;;;5010850;28;20217;-86
2021/07/11 01:40:52;;;;;;;14.10;7.03;;;14.50;99.90;;;;;;4994735;28;20294;-85
2021/07/11 01:43:20;;;;;;;12.30;6.30;;;14.40;99.90;;;;;;5009741;28;20210;-86
2021/07/11 01:45:51;;;;;;;10.30;6.63;;;14.40;99.90;;;;;;5001808;28;20770;-85
2021/07/11 01:48:18;;;;;;;15.00;6.90;;;14.40;99.90;;;;;;5020051;28;20218;-84
2021/07/11 01:50:46;;;;;;;12.73;6.07;;;14.40;99.90;;;;;;5018793;28;20238;-85
2021/07/11 01:53:13;;;;;;;11.33;6.87;;;14.40;99.90;;;;;;5018326;28;20252;-85
2021/07/11 01:55:39;;;;;;;10.80;6.87;;;14.40;99.90;;;;;;5009500;28;20197;-85
2021/07/11 01:58:05;;;;;;;12.07;6.50;;;14.50;99.90;;;;;;5011277;28;20193;-85
2021/07/11 02:00:31;;;;;;;9.27;5.93;;;14.50;99.90;;;;;;5001470;28;20262;-84
2021/07/11 02:02:57;;;;;;;7.63;5.57;;;14.20;99.90;;;;;;5018025;28;20213;-86
2021/07/11 02:05:23;;;;;;;11.70;6.80;;;14.20;99.90;;;;;;5010901;28;20297;-84
2021/07/11 02:07:48;;;;;;;10.13;6.43;;;14.20;99.90;;;;;;5019330;28;20222;-85
2021/07/11 02:10:17;;;;;;;11.73;6.43;;;14.20;99.90;;;;;;5002364;28;20663;-85
2021/07/11 02:13:01;;;;;;;8.73;5.50;;;14.20;99.90;;;;;;5016801;28;20249;-87
2021/07/11 02:15:29;;;;;;;8.40;5.77;;;14.20;99.90;;;;;;5015706;28;20226;-86
2021/07/11 02:17:57;;;;;;;10.13;6.37;;;14.20;99.90;;;;;;5009535;28;20256;-84
2021/07/11 02:20:25;;;;;;;10.80;6.33;;;14.10;99.90;;;;;;5016892;28;20239;-84
2021/07/11 02:22:53;;;;;;;11.47;5.87;;;14.00;99.90;;;;;;5019226;28;20676;-87
2021/07/11 02:25:21;;;;;;;8.47;5.77;;;14.10;99.90;;;;;;5018192;28;20269;-84
2021/07/11 02:27:50;;;;;;;10.83;6.27;;;14.10;99.90;;;;;;5009208;28;20207;-84
2021/07/11 02:30:19;;;;;;;10.53;6.67;;;14.20;99.90;;;;;;5017778;28;20215;-84
2021/07/11 02:32:48;;;;;;;7.80;5.17;;;14.10;99.90;;;;;;5034076;28;20291;-84
2021/07/11 02:35:16;;;;;;;8.67;5.67;;;14.10;99.90;;;;;;5018951;28;20230;-84
2021/07/11 02:37:47;;;;;;;11.67;6.07;;;14.00;99.90;;;;;;5018454;28;20615;-85
2021/07/11 02:40:14;;;;;;;12.03;6.10;;;14.00;99.90;;;;;;5036257;28;20206;-84
2021/07/11 02:42:40;;;;;;;11.97;5.83;;;14.10;99.90;;;;;;5010299;28;20216;-85
2021/07/11 02:45:07;;;;;;;14.63;6.63;;;14.20;99.90;;;;;;5017999;28;20691;-84
2021/07/11 02:47:37;;;;;;;11.03;6.43;;;14.20;99.90;;;;;;5010344;28;20214;-84
2021/07/11 02:50:07;;;;;;;8.77;5.37;;;14.10;99.90;;;;;;5019311;28;20261;-84
2021/07/11 02:52:34;;;;;;;9.97;5.60;;;14.20;99.90;;;;;;5016549;28;20197;-84
2021/07/11 02:55:15;;;;;;;11.27;6.03;;;14.10;99.90;;;;;;5016368;28;20651;-86
2021/07/11 02:57:46;;;;;;;11.97;6.57;;;14.00;99.90;;;;;;5051491;28;20202;-84
2021/07/11 03:00:18;;;;;;;9.47;5.60;;;13.90;99.90;;;;;;5019335;28;20211;-86
2021/07/11 03:02:49;;;;;;;8.63;6.33;;;13.90;99.90;;;;;;5009511;28;20206;-84
2021/07/11 03:05:22;;;;;;;8.43;5.97;;;13.80;99.90;;;;;;5034361;28;20223;-86
2021/07/11 03:07:52;;;;;;;7.83;5.23;;;13.70;99.90;;;;;;5038491;28;20218;-84
2021/07/11 03:10:22;;;;;;;10.60;5.97;;;13.70;99.90;;;;;;5015315;28;20255;-84
2021/07/11 03:12:53;;;;;;;9.17;6.63;;;13.90;99.90;;;;;;5021611;28;21202;-84
2021/07/11 03:15:22;;;;;;;10.83;5.53;;;13.90;99.90;;;;;;5012769;28;20691;-84
2021/07/11 03:17:48;;;;;;;8.53;5.37;;;13.90;99.90;;;;;;5035693;28;20365;-84
2021/07/11 03:20:14;;;;;;;10.83;7.30;;;13.80;99.90;;;;;;5013530;28;20230;-84
2021/07/11 03:22:41;;;;;;;10.47;5.97;;;13.80;99.90;;;;;;5023732;28;20734;-87
2021/07/11 03:25:10;;;;;;;10.67;6.17;;;13.80;99.90;;;;;;5012697;28;20901;-84
2021/07/11 03:27:36;;;;;;;11.50;5.40;;;13.70;99.90;;;;;;5006066;28;20721;-84
2021/07/11 03:30:16;;;;;;;7.87;5.40;;;13.60;99.90;;;;;;5020424;28;20225;-84
2021/07/11 03:32:42;;;;;;;9.10;4.67;;;13.50;99.90;;;;;;5019119;28;20218;-85
2021/07/11 03:35:11;;;;;;;7.93;5.27;;;13.50;99.90;;;;;;5021545;28;20714;-86
2021/07/11 03:37:42;;;;;;;9.80;5.97;;;13.60;99.90;;;;;;5005522;28;20182;-84
2021/07/11 03:40:10;;;;;;;11.97;6.13;;;13.60;99.90;;;;;;5021985;28;20673;-84
2021/07/11 03:42:42;;;;;;;11.63;6.77;;;13.80;99.90;;;;;;5012372;28;20202;-84
2021/07/11 03:45:10;;;;;;;11.07;7.03;;;14.00;99.90;;;;;;5020246;28;20215;-86
2021/07/11 03:47:42;;;;;;;9.80;6.27;;;14.20;99.90;;;;;;5037895;28;20214;-84
2021/07/11 03:50:10;;;;;;;11.17;6.40;;;14.10;99.90;;;;;;5021678;28;20244;-84
2021/07/11 03:52:51;;;;;;;13.57;7.53;;;13.90;99.90;;;;;;5020596;28;20231;-84
2021/07/11 03:55:18;;;;;;;9.77;6.10;;;13.90;99.90;;;;;;5036609;28;20190;-86
2021/07/11 03:57:47;;;;;;;9.73;6.70;;;13.80;99.90;;;;;;5011051;28;20546;-84
2021/07/11 04:00:16;;;;;;;10.20;5.87;;;13.90;99.90;;;;;;5019385;28;20723;-86
2021/07/11 04:02:45;;;;;;;10.43;6.40;;;14.00;99.90;;;;;;5036488;28;20206;-85
2021/07/11 04:05:12;;;;;;;10.60;7.17;;;14.10;99.90;;;;;;5012792;28;20206;-84
2021/07/11 04:07:40;;;;;;;11.17;7.03;;;14.30;99.90;;;;;;5011180;28;20187;-85
2021/07/11 04:10:07;;;;;;;9.70;5.33;;;14.30;99.90;;;;;;5023211;28;20182;-85
2021/07/11 04:12:34;;;;;;;11.17;7.33;;;14.40;99.90;;;;;;4925953;28;20210;-85
2021/07/11 04:15:00;;;;;;;9.83;6.03;;;14.50;99.90;;;;;;5019583;28;20736;-84
2021/07/11 04:17:28;;;;;;;11.53;6.17;;;14.60;99.90;;;;;;5020758;28;20294;-84
2021/07/11 04:19:57;;;;;;;10.73;6.43;;;14.60;99.90;;;;;;5002916;28;20318;-84
2021/07/11 04:22:24;;;;;;;9.00;5.43;;;14.60;99.90;;;;;;5020215;28;20185;-83
2021/07/11 04:24:52;;;;;;;7.70;4.97;;;14.60;99.90;;;;;;5018564;28;20268;-84
2021/07/11 04:27:19;;;;;;;11.33;6.67;;;14.60;99.90;;;;;;5018685;28;20860;-83
2021/07/11 04:29:48;;;;;;;10.10;5.13;;;14.60;99.90;;;;;;5012364;28;20769;-86
2021/07/11 04:32:14;;;;;;;14.93;7.37;;;14.70;99.90;;;;;;5012821;28;20213;-84
2021/07/11 04:34:41;;;;;;;12.17;5.83;;;14.90;99.90;;;;;;4994281;28;20182;-86
2021/07/11 04:37:08;;;;;;;10.83;6.67;;;15.00;99.90;;;;;;5012325;28;20186;-84
2021/07/11 04:39:34;;;;;;;11.93;5.63;;;15.10;99.90;;;;;;5018405;28;20225;-84
2021/07/11 04:42:00;;;;;;;9.80;5.77;;;15.20;99.90;;;;;;5011539;28;20828;-84
2021/07/11 04:44:27;;;;;;;9.17;5.17;;;15.30;99.90;;;;;;5002175;28;20307;-85
2021/07/11 04:46:53;;;;;;;9.70;5.43;;;15.40;99.90;;;;;;5019332;28;20214;-84
2021/07/11 04:49:22;;;;;;;12.43;6.70;;;15.50;99.90;;;;;;5020083;28;20181;-84
2021/07/11 04:51:52;;;;;;;11.50;6.17;;;15.60;99.90;;;;;;5019701;28;20230;-84
2021/07/11 04:54:18;;;;;;;10.50;6.77;;;15.70;99.90;;;;;;5018882;28;20709;-84
2021/07/11 04:56:44;;;;;;;10.70;5.77;;;15.80;99.90;;;;;;5018754;28;20264;-84
2021/07/11 04:59:10;;;;;;;11.40;6.70;;;15.80;99.90;;;;;;5000291;28;20690;-84
2021/07/11 05:01:35;;;;;;;9.63;6.43;;;15.90;99.90;;;;;;4994295;28;20206;-84
2021/07/11 05:04:02;;;;;;;10.80;6.60;;;16.00;99.90;;;;;;5011833;28;20186;-84
2021/07/11 05:06:28;;;;;;;10.60;5.93;;;16.10;99.90;;;;;;5021124;28;20208;-86
2021/07/11 05:08:54;;;;;;;9.37;6.03;;;16.20;99.90;;;;;;5021284;28;20216;-85
2021/07/11 05:11:20;;;;;;;8.07;5.33;;;16.30;99.90;;;;;;5010071;28;20786;-85
2021/07/11 05:13:45;;;;;;;11.93;6.03;;;16.30;99.90;;;;;;5010597;28;20185;-84
2021/07/11 05:16:11;;;;;;;9.00;5.20;;;16.40;99.90;;;;;;5012507;28;20642;-87
2021/07/11 05:18:37;;;;;;;10.07;6.47;;;16.40;99.90;;;;;;5010407;28;20214;-85
2021/07/11 05:21:03;;;;;;;11.90;5.47;;;16.50;99.90;;;;;;5014235;28;20314;-85
2021/07/11 05:23:29;;;;;;;6.63;4.53;;;16.70;99.90;;;;;;4990356;28;20285;-86
2021/07/11 05:25:55;;;;;;;10.00;5.47;;;17.00;99.90;;;;;;5014034;28;20314;-83
2021/07/11 05:28:21;;;;;;;9.33;5.23;;;17.40;99.90;;;;;;5007026;28;20203;-84
2021/07/11 05:30:46;;;;;;;8.77;6.07;;;19.20;99.90;;;;;;5015799;28;20222;-84
2021/07/11 05:33:12;;;;;;;9.50;5.30;;;21.50;99.90;;;;;;4989406;28;20213;-85
2021/07/11 05:35:38;;;;;;;8.53;5.17;;;23.60;99.90;;;;;;5006850;28;20211;-84
2021/07/11 05:38:04;;;;;;;5.90;4.03;;;24.60;99.90;;;;;;5006861;28;20276;-84
2021/07/11 05:40:29;;;;;;;5.07;4.17;;;25.30;99.90;;;;;;4992016;28;20237;-85
2021/07/11 05:42:55;;;;;;;5.70;4.07;;;25.40;99.90;;;;;;4998501;28;20200;-85
2021/07/11 05:45:21;;;;;;;4.63;3.43;;;25.50;99.90;;;;;;5013685;28;20706;-86
2021/07/11 05:47:47;;;;;;;5.60;3.83;;;25.80;99.90;;;;;;5013478;28;20214;-87
2021/07/11 05:50:13;;;;;;;4.87;3.43;;;25.70;99.90;;;;;;5008242;28;20257;-83
2021/07/11 05:52:39;;;;;;;4.38;3.75;;;24.90;99.90;;;;;;5015413;28;20668;-83
2021/07/11 05:55:06;;;;;;;6.35;3.75;;;25.20;99.90;;;;;;5013853;28;20172;-83
2021/07/11 05:57:32;;;;;;;4.20;3.22;;;24.70;99.90;;;;;;5006639;28;20223;-84
2021/07/11 05:59:58;;;;;;;5.18;3.97;;;24.80;99.90;;;;;;5015628;28;20298;-84
2021/07/11 06:02:24;;;;;;;4.97;3.20;;;25.40;99.90;;;;;;4998964;28;20302;-83
2021/07/11 06:04:49;;;;;;;5.93;3.83;;;25.00;99.90;;;;;;4970381;28;20250;-83
2021/07/11 06:07:15;;;;;;;5.25;3.70;;;24.80;99.90;;;;;;4978351;28;20184;-84
2021/07/11 06:09:41;;;;;;;5.70;3.85;;;25.20;99.90;;;;;;4969085;28;20220;-83
2021/07/11 06:12:07;;;;;;;6.72;4.60;;;25.70;99.90;;;;;;4986684;28;20277;-83
2021/07/11 06:14:33;;;;;;;5.68;4.18;;;24.50;99.90;;;;;;4995227;28;20242;-82
2021/07/11 06:17:00;;;;;;;4.78;3.85;;;23.60;99.90;;;;;;4987402;28;20270;-83
2021/07/11 06:19:26;;;;;;;7.60;4.10;;;23.00;99.90;;;;;;4986436;28;20644;-83
2021/07/11 06:21:51;;;;;;;4.28;2.95;;;23.10;99.90;;;;;;4969857;28;20227;-83
2021/07/11 06:24:18;;;;;;;3.88;3.38;;;23.30;99.90;;;;;;4997467;28;20212;-84
2021/07/11 06:26:44;;;;;;;5.95;4.05;;;23.40;99.90;;;;;;4969758;28;20219;-85
2021/07/11 06:29:10;;;;;;;5.00;4.13;;;23.40;99.90;;;;;;4992543;28;20230;-83
2021/07/11 06:31:36;;;;;;;5.18;4.07;;;24.00;99.90;;;;;;4985918;28;20199;-82
2021/07/11 06:34:02;;;;;;;5.22;4.25;;;24.00;99.90;;;;;;4996955;28;20574;-84
2021/07/11 06:36:28;;;;;;;6.70;3.83;;;24.10;99.90;;;;;;4995245;28;20211;-86
2021/07/11 06:38:54;;;;;;;7.25;4.65;;;24.00;99.90;;;;;;4970102;28;20290;-85
2021/07/11 06:41:20;;;;;;;3.78;2.97;;;24.20;99.90;;;;;;4988113;28;20322;-83
2021/07/11 06:43:45;;;;;;;10.05;4.15;;;24.50;99.90;;;;;;5000209;28;20283;-83
2021/07/11 06:46:11;;;;;;;5.13;3.50;;;24.30;99.90;;;;;;4975257;28;20246;-83
2021/07/11 06:48:37;;;;;;;5.00;4.35;;;24.30;99.90;;;;;;4973584;28;20328;-84
2021/07/11 06:51:03;;;;;;;4.82;3.22;;;24.40;99.90;;;;;;4991182;28;20227;-83
2021/07/11 06:53:30;;;;;;;5.18;4.05;;;24.00;99.90;;;;;;4990591;28;20207;-84
2021/07/11 06:55:55;;;;;;;4.95;3.78;;;24.00;99.90;;;;;;4991193;28;20696;-83
2021/07/11 06:58:21;;;;;;;4.32;3.08;;;24.30;99.90;;;;;;4990475;28;20219;-85
2021/07/11 07:00:47;;;;;;;4.45;2.80;;;24.30;99.90;;;;;;4981581;28;20297;-83
2021/07/11 07:03:13;;;;;;;4.88;3.45;;;24.50;99.90;;;;;;4999879;28;20322;-84
2021/07/11 07:05:39;;;;;;;4.85;3.38;;;24.70;99.90;;;;;;4973388;28;20739;-85
2021/07/11 07:08:05;;;;;;;4.75;3.70;;;24.40;99.90;;;;;;4995156;28;20302;-84
2021/07/11 07:10:31;;;;;;;4.38;3.50;;;24.10;99.90;;;;;;4983628;28;20286;-84
2021/07/11 07:12:56;;;;;;;3.45;3.13;;;24.20;99.90;;;;;;4945402;28;20273;-84
2021/07/11 07:15:22;;;;;;;3.75;2.88;;;24.50;99.90;;;;;;4983377;28;20188;-85
2021/07/11 07:17:48;;;;;;;5.43;3.45;;;25.00;99.90;;;;;;4970413;28;20667;-84
2021/07/11 07:20:15;;;;;;;5.25;2.95;;;25.00;99.90;;;;;;4961927;28;20250;-84
2021/07/11 07:22:41;;;;;;;5.78;3.50;;;24.70;99.90;;;;;;5043220;28;20187;-84
2021/07/11 07:25:14;;;;;;;4.68;3.25;;;24.70;99.90;;;;;;5010323;28;20210;-86
2021/07/11 07:27:41;;;;;;;6.22;3.75;;;24.50;99.90;;;;;;5016935;28;20219;-83
2021/07/11 07:30:08;;;;;;;5.00;3.17;;;24.10;99.90;;;;;;5003687;28;20215;-87
2021/07/11 07:32:33;;;;;;;4.78;2.95;;;23.60;99.90;;;;;;4971189;28;20223;-83
2021/07/11 07:34:59;;;;;;;4.47;3.40;;;24.10;99.90;;;;;;5009534;28;20270;-85
2021/07/11 07:37:25;;;;;;;4.60;3.45;;;24.50;99.90;;;;;;5002464;28;20189;-83
2021/07/11 07:39:51;;;;;;;4.00;3.00;;;25.40;99.90;;;;;;4992286;28;20235;-85
2021/07/11 07:42:16;;;;;;;5.43;3.80;;;26.00;99.90;;;;;;4994654;28;20187;-83
2021/07/11 07:44:43;;;;;;;4.80;3.22;;;25.70;99.90;;;;;;4997789;28;20229;-83
2021/07/11 07:47:08;;;;;;;4.22;3.35;;;25.70;99.90;;;;;;5017210;28;20237;-84
2021/07/11 07:49:34;;;;;;;4.07;3.15;;;26.00;99.90;;;;;;4993042;28;20187;-84
2021/07/11 07:52:00;;;;;;;3.72;3.33;;;26.50;99.90;;;;;;4989924;28;20222;-83
2021/07/11 07:54:26;;;;;;;4.38;3.47;;;26.30;99.90;;;;;;5015542;28;20233;-84
2021/07/11 07:56:52;;;;;;;7.72;4.05;;;26.30;99.90;;;;;;4974545;28;20707;-83
2021/07/11 07:59:18;;;;;;;5.30;3.58;;;26.70;99.90;;;;;;4989022;28;20234;-84
2021/07/11 08:01:44;;;;;;;5.50;3.67;;;26.70;99.90;;;;;;5017289;28;20261;-84
2021/07/11 08:04:09;;;;;;;5.57;4.00;;;26.80;99.90;;;;;;4989192;28;20226;-84
2021/07/11 08:06:35;;;;;;;6.03;3.88;;;26.50;99.90;;;;;;5007119;28;20215;-84
2021/07/11 08:09:02;;;;;;;4.80;3.70;;;26.80;99.90;;;;;;4988717;28;20219;-85
2021/07/11 08:11:28;;;;;;;4.82;3.83;;;26.20;99.90;;;;;;5007243;28;20230;-85
2021/07/11 08:13:54;;;;;;;5.55;3.53;;;26.20;99.90;;;;;;5008295;28;20191;-85
2021/07/11 08:16:20;;;;;;;5.57;3.78;;;26.10;99.90;;;;;;5004668;28;20328;-85
2021/07/11 08:18:45;;;;;;;4.78;3.58;;;25.80;99.90;;;;;;5001357;28;20244;-84
2021/07/11 08:21:12;;;;;;;4.60;3.60;;;26.50;99.90;;;;;;4984989;28;20301;-85
2021/07/11 08:23:38;;;;;;;5.85;4.43;;;26.90;99.90;;;;;;5002944;28;20216;-85
2021/07/11 08:26:03;;;;;;;7.50;4.18;;;27.20;99.90;;;;;;5018247;28;20615;-86
2021/07/11 08:28:29;;;;;;;5.30;3.80;;;28.00;99.90;;;;;;4992871;28;20222;-85
2021/07/11 08:30:55;;;;;;;5.25;3.70;;;28.30;99.90;;;;;;5006407;28;20309;-85
2021/07/11 08:33:21;;;;;;;6.35;4.10;;;28.10;99.90;;;;;;4991769;28;20308;-86
2021/07/11 08:35:47;;;;;;;6.78;3.90;;;27.70;99.90;;;;;;5012789;28;20226;-84
2021/07/11 08:38:12;;;;;;;5.38;3.75;;;28.30;99.90;;;;;;4989316;28;20282;-84
2021/07/11 08:40:38;;;;;;;6.88;4.10;;;28.50;99.90;;;;;;4990785;28;20305;-84
2021/07/11 08:43:06;;;;;;;6.47;4.50;;;27.90;99.90;;;;;;4965513;28;20650;-85
2021/07/11 08:45:33;;;;;;;5.15;3.90;;;28.10;99.90;;;;;;5013427;28;20865;-87
2021/07/11 08:47:59;;;;;;;7.03;4.32;;;27.00;99.90;;;;;;4999548;28;20219;-85
2021/07/11 08:50:25;;;;;;;4.63;3.70;;;26.10;99.90;;;;;;5000132;28;20229;-85
2021/07/11 08:52:50;;;;;;;5.40;4.40;;;25.60;99.90;;;;;;5014920;28;20216;-86
2021/07/11 08:55:18;;;;;;;6.63;3.92;;;25.60;99.90;;;;;;4979325;28;20707;-86
2021/07/11 08:57:55;;;;;;;5.22;4.28;;;26.40;99.90;;;;;;5015627;28;20699;-86
2021/07/11 09:00:25;;;;;;;4.68;4.15;;;26.40;99.90;;;;;;5012690;28;20655;-85
2021/07/11 09:02:51;;;;;;;6.72;4.55;;;25.90;99.90;;;;;;4998745;28;20233;-86
2021/07/11 09:05:30;;;;;;;5.53;4.40;;;25.40;99.90;;;;;;4991295;28;20183;-86
2021/07/11 09:08:03;;;;;;;7.22;4.30;;;25.10;99.90;;;;;;4995899;28;20774;-87
2021/07/11 09:10:48;;;;;;;7.35;4.72;;;25.10;99.90;;;;;;5012275;28;21011;-85
2021/07/11 09:13:16;;;;;;;6.00;4.28;;;25.10;99.90;;;;;;5014929;28;20582;-85
2021/07/11 09:15:47;;;;;;;6.38;4.75;;;24.40;99.90;;;;;;5015196;28;20234;-86
2021/07/11 09:18:13;;;;;;;5.78;4.68;;;24.20;99.90;;;;;;5015723;28;20206;-86
2021/07/11 09:21:00;;;;;;;6.63;4.75;;;23.50;99.90;;;;;;4987864;28;20234;-86
2021/07/11 09:23:29;;;;;;;5.45;4.00;;;23.60;99.90;;;;;;4994289;28;20874;-86
2021/07/11 09:26:06;;;;;;;7.65;4.45;;;23.50;99.90;;;;;;4993776;28;20180;-86
2021/07/11 09:28:35;;;;;;;5.47;4.38;;;23.40;99.90;;;;;;4987777;28;20207;-87
2021/07/11 09:31:02;;;;;;;5.13;4.03;;;23.50;99.90;;;;;;4993223;28;20215;-85
2021/07/11 09:33:27;;;;;;;5.72;4.88;;;23.50;99.90;;;;;;4994154;28;20214;-86
2021/07/11 09:36:03;;;;;;;8.32;4.78;;;23.10;99.90;;;;;;4980843;28;20215;-86
2021/07/11 09:38:29;;;;;;;4.50;3.28;;;23.50;99.90;;;;;;4988131;28;20282;-85
2021/07/11 09:40:55;;;;;;;4.82;3.30;;;23.50;99.90;;;;;;4999395;28;21182;-85
2021/07/11 09:43:21;;;;;;;9.80;4.15;;;23.40;99.90;;;;;;4983860;28;20269;-85
2021/07/11 09:45:46;;;;;;;4.97;3.70;;;23.50;99.90;;;;;;4997827;28;20253;-85
2021/07/11 09:48:13;;;;;;;5.13;3.67;;;23.50;99.90;;;;;;4996036;28;20285;-84
2021/07/11 09:50:38;;;;;;;4.22;3.60;;;23.50;99.90;;;;;;4999643;28;20210;-84
2021/07/11 09:53:07;;;;;;;5.55;3.55;;;23.50;99.90;;;;;;5007077;28;20543;-86
2021/07/11 09:55:35;;;;;;;7.85;4.50;;;23.30;99.90;;;;;;5007445;28;20703;-84
2021/07/11 09:58:03;;;;;;;5.88;4.18;;;23.30;99.90;;;;;;4999600;28;21128;-84
2021/07/11 10:00:32;;;;;;;8.23;4.93;;;23.10;99.90;;;;;;5017282;28;20219;-86
2021/07/11 10:03:07;;;;;;;8.10;4.38;;;23.10;99.90;;;;;;5018102;28;20345;-85
2021/07/11 10:05:34;;;;;;;6.22;4.05;;;23.30;99.90;;;;;;5017649;28;20179;-84
2021/07/11 10:08:01;;;;;;;5.20;3.75;;;23.60;99.90;;;;;;5017255;28;20229;-85
2021/07/11 10:10:29;;;;;;;6.28;4.10;;;23.70;99.90;;;;;;4997493;28;20211;-84
2021/07/11 10:12:56;;;;;;;7.50;4.63;;;23.90;99.90;;;;;;5017889;28;20210;-84
2021/07/11 10:15:25;;;;;;;7.18;4.05;;;24.20;99.90;;;;;;5016317;28;20685;-85
2021/07/11 10:18:09;;;;;;;7.07;4.50;;;24.70;99.90;;;;;;5020838;28;20230;-85
2021/07/11 10:20:37;;;;;;;6.28;4.65;;;24.90;99.90;;;;;;5017025;28;20905;-84
2021/07/11 10:23:04;;;;;;;7.82;4.45;;;24.60;99.90;;;;;;5017871;28;20195;-84
2021/07/11 10:25:31;;;;;;;6.88;5.20;;;24.00;99.90;;;;;;5009295;28;20215;-85
2021/07/11 10:28:12;;;;;;;7.57;4.55;;;23.40;99.90;;;;;;5020337;28;20238;-84
2021/07/11 10:30:46;;;;;;;8.57;4.72;;;23.40;99.90;;;;;;5021599;28;20229;-85
2021/07/11 10:33:21;;;;;;;5.30;4.38;;;23.60;99.90;;;;;;5020675;28;20226;-84
2021/07/11 10:36:06;;;;;;;7.25;4.80;;;23.90;99.90;;;;;;5019252;28;20785;-85
2021/07/11 10:38:39;;;;;;;9.00;5.03;;;24.40;99.90;;;;;;5019454;28;20199;-85
2021/07/11 10:41:14;;;;;;;7.43;4.53;;;24.10;99.90;;;;;;5019215;28;20198;-84
2021/07/11 10:43:41;;;;;;;7.57;4.65;;;24.30;99.90;;;;;;5016410;28;20571;-85
2021/07/11 10:46:07;;;;;;;6.25;4.85;;;24.80;99.90;;;;;;5010116;28;20586;-85
2021/07/11 10:48:34;;;;;;;5.57;3.25;;;24.40;99.90;;;;;;4994569;28;20211;-85
2021/07/11 10:51:00;;;;;;;3.70;3.10;;;24.10;99.90;;;;;;5009759;28;20234;-86
2021/07/11 10:53:33;;;;;;;4.03;3.17;;;24.30;99.90;;;;;;4992739;28;20674;-85
2021/07/11 10:55:59;;;;;;;5.07;3.05;;;24.10;99.90;;;;;;5018213;28;20633;-84
2021/07/11 10:58:25;;;;;;;3.90;2.28;;;24.10;99.90;;;;;;5009897;28;20211;-84
2021/07/11 11:00:51;;;;;;;2.97;2.53;;;23.60;99.90;;;;;;5018518;28;20219;-84
2021/07/11 11:03:20;;;;;;;6.05;2.60;;;23.00;99.90;;;;;;5000114;28;20210;-83
2021/07/11 11:05:48;;;;;;;4.68;3.63;;;22.80;99.90;;;;;;5017245;28;20354;-84
2021/07/11 11:08:22;;;;;;;3.50;3.05;;;22.60;99.90;;;;;;5019376;28;20651;-85
2021/07/11 11:10:53;;;;;;;7.40;3.72;;;22.40;99.90;;;;;;4997924;28;20230;-84
2021/07/11 11:13:25;;;;;;;5.25;3.70;;;22.40;99.90;;;;;;4990615;28;20347;-84
2021/07/11 11:15:58;;;;;;;4.95;3.53;;;22.50;99.90;;;;;;4997921;28;20757;-87
2021/07/11 11:18:43;;;;;;;4.47;3.40;;;22.60;99.90;;;;;;4997033;28;20223;-88
2021/07/11 11:21:11;;;;;;;4.25;3.35;;;22.20;99.90;;;;;;4999966;28;20231;-86
2021/07/11 11:23:46;;;;;;;6.15;3.40;;;22.30;99.90;;;;;;4999574;28;20590;-86
2021/07/11 11:26:23;;;;;;;5.82;3.78;;;22.30;99.90;;;;;;4999735;28;20197;-88
2021/07/11 11:28:51;;;;;;;3.73;2.90;;;22.30;99.90;;;;;;5008060;28;20310;-87
2021/07/11 11:31:28;;;;;;;6.35;3.88;;;22.30;99.90;;;;;;4986631;28;20222;-86
2021/07/11 11:33:55;;;;;;;5.80;3.90;;;22.40;99.90;;;;;;5014167;28;20207;-86
2021/07/11 11:36:37;;;;;;;5.20;3.30;;;22.40;99.90;;;;;;5016254;28;20238;-85
2021/07/11 11:39:07;;;;;;;5.43;3.93;;;22.40;99.90;;;;;;5017116;28;20750;-86
2021/07/11 11:41:33;;;;;;;6.20;3.47;;;22.30;99.90;;;;;;5018404;28;20730;-87
2021/07/11 11:44:13;;;;;;;4.93;3.83;;;22.20;99.90;;;;;;5019186;28;20206;-87
2021/07/11 11:46:40;;;;;;;7.10;3.93;;;22.20;99.90;;;;;;5019952;28;20218;-88
2021/07/11 11:49:20;;;;;;;11.27;3.90;;;22.20;99.90;;;;;;5018226;28;20289;-86
2021/07/11 11:51:54;;;;;;;5.33;4.07;;;22.20;99.90;;;;;;5017697;28;20246;-86
2021/07/11 11:54:25;;;;;;;4.10;3.27;;;22.30;99.90;;;;;;5019241;28;20769;-86
2021/07/11 11:56:51;;;;;;;8.90;3.87;;;22.20;99.90;;;;;;5017336;28;20219;-86
2021/07/11 11:59:16;;;;;;;6.63;3.90;;;22.30;99.90;;;;;;5010345;28;20558;-89
2021/07/11 12:01:42;;;;;;;7.77;3.70;;;22.30;99.90;;;;;;5017280;28;20275;-87
2021/07/11 12:04:16;;;;;;;6.53;4.00;;;22.30;99.90;;;;;;4989317;28;20227;-87
2021/07/11 12:06:47;;;;;;;4.93;4.03;;;22.20;99.90;;;;;;5012108;28;20269;-87
2021/07/11 12:09:14;;;;;;;5.43;4.03;;;22.20;99.90;;;;;;5020215;28;20627;-87
2021/07/11 12:11:40;;;;;;;7.00;4.00;;;22.40;99.90;;;;;;5018511;28;20710;-86
2021/07/11 12:14:12;;;;;;;5.50;4.00;;;22.60;99.90;;;;;;5007838;28;20274;-87
2021/07/11 12:16:40;;;;;;;4.97;4.07;;;22.70;99.90;;;;;;5019043;28;20288;-86
2021/07/11 12:19:08;;;;;;;7.30;3.70;;;22.60;99.90;;;;;;5016177;28;20680;-86
2021/07/11 12:21:38;;;;;;;8.43;4.25;;;22.60;99.90;;;;;;5015557;28;20231;-86
2021/07/11 12:24:11;;;;;;;6.53;4.20;;;22.80;99.90;;;;;;5018368;28;20207;-86
2021/07/11 12:26:54;;;;;;;7.30;4.07;;;22.90;99.90;;;;;;5015973;28;20178;-85
2021/07/11 12:29:29;;;;;;;9.53;4.80;;;22.90;99.90;;;;;;5017850;28;20232;-87
2021/07/11 12:32:00;;;;;;;6.60;4.63;;;22.70;99.90;;;;;;5016274;28;20189;-87
2021/07/11 12:34:26;;;;;;;6.63;4.73;;;22.60;99.90;;;;;;5009875;28;20219;-85
2021/07/11 12:36:54;;;;;;;9.83;5.77;;;22.90;99.90;;;;;;5008797;28;20695;-87
2021/07/11 12:39:23;;;;;;;7.57;4.40;;;23.00;99.90;;;;;;5016241;28;20309;-86
2021/07/11 12:41:48;;;;;;;9.07;4.50;;;22.60;99.90;;;;;;5014608;28;20223;-88
2021/07/11 12:44:17;;;;;;;4.95;3.92;;;22.50;99.90;;;;;;4992402;28;20217;-86
2021/07/11 12:46:43;;;;;;;5.10;3.90;;;22.70;99.90;;;;;;5001706;28;20629;-86
2021/07/11 12:49:14;;;;;;;4.22;3.30;;;22.60;99.90;;;;;;5017894;28;20218;-87